createdAt,value
2023-01-05T00:05:48.359Z,80.1
2023-01-05T00:11:53.341Z,80.2
2023-01-05T00:17:43.840Z,81.5
2023-01-05T00:23:36.089Z,81
2023-01-05T00:29:39.678Z,81.8
2023-01-05T00:35:31.576Z,81.9
2023-01-05T00:41:26.526Z,82.5
2023-01-05T00:47:17.709Z,82.4
2023-01-05T00:53:19.437Z,83.2
2023-01-05T00:59:18.162Z,83.4
2023-01-05T01:05:09.158Z,83.5
2023-01-05T01:11:03.011Z,83.1
2023-01-05T01:17:01.658Z,82.7
2023-01-05T01:22:52.621Z,82.8
2023-01-05T01:29:53.782Z,83.1
2023-01-05T01:35:56.862Z,81.7
2023-01-05T01:41:47.921Z,81.9
2023-01-05T01:47:41.232Z,82.1
2023-01-05T01:53:33.293Z,82.4
2023-01-05T01:59:26.900Z,82.6
2023-01-05T02:05:18.287Z,82.2
2023-01-05T02:11:10.310Z,82.9
2023-01-05T02:17:03.557Z,82.6
2023-01-05T02:22:55.651Z,83
2023-01-05T02:28:47.544Z,83.2
2023-01-05T02:34:41.092Z,83.1
2023-01-05T02:40:32.747Z,82.7
2023-01-05T02:46:26.517Z,83.5
2023-01-05T02:52:18.139Z,83.5
2023-01-05T02:58:11.576Z,83.7
2023-01-05T03:04:08.807Z,83.9
2023-01-05T03:10:00.423Z,83.4
2023-01-05T03:15:51.137Z,83.4
2023-01-05T03:21:44.064Z,82.9
2023-01-05T03:27:38.296Z,82.9
2023-01-05T03:33:30.275Z,82.8
2023-01-05T03:39:22.040Z,83.3
2023-01-05T03:45:15.828Z,82.8
2023-01-05T03:51:07.486Z,82.9
2023-01-05T03:57:00.426Z,83.3
2023-01-05T04:02:54.600Z,83.4
2023-01-05T04:08:47.117Z,83.8
2023-01-05T04:14:50.928Z,84.3
2023-01-05T04:20:43.846Z,84.7
2023-01-05T04:26:36.664Z,85
2023-01-05T04:32:27.734Z,84.7
2023-01-05T04:38:31.625Z,84.6
2023-01-05T04:44:22.615Z,85.1
2023-01-05T04:50:16.815Z,85.1
2023-01-05T04:56:09.381Z,85.6
2023-01-05T05:02:02.387Z,85.8
2023-01-05T05:07:55.361Z,86
2023-01-05T05:13:59.589Z,85.7
2023-01-05T05:19:58.912Z,85.9
2023-01-05T05:26:01.550Z,85.5
2023-01-05T05:31:53.823Z,86.2
2023-01-05T05:37:48.022Z,86.3
2023-01-05T05:43:47.219Z,86.3
2023-01-05T05:49:44.408Z,86.4
2023-01-05T05:55:37.265Z,86.8
2023-01-05T06:01:31.655Z,87
2023-01-05T06:07:35.968Z,86.5
2023-01-05T06:13:29.652Z,87.1
2023-01-05T06:19:22.704Z,86.9
2023-01-05T06:25:15.229Z,88.1
2023-01-05T06:31:07.371Z,87.9
2023-01-05T06:37:07.119Z,88.4
2023-01-05T06:43:00.448Z,88.2
2023-01-05T06:48:52.945Z,88.2
2023-01-05T06:54:46.077Z,88.2
2023-01-05T07:00:38.819Z,87.7
2023-01-05T07:06:35.578Z,88
2023-01-05T07:12:26.764Z,88.1
2023-01-05T07:18:21.910Z,89
2023-01-05T07:24:16.181Z,89.5
2023-01-05T07:30:13.248Z,90.3
2023-01-05T07:36:07.309Z,91.1
2023-01-05T07:42:03.376Z,91.1
2023-01-05T07:47:56.426Z,91.7
2023-01-05T07:53:49.365Z,92.2
2023-01-05T07:59:41.352Z,92.1
2023-01-05T08:05:33.743Z,93.2
2023-01-05T08:11:25.253Z,92.8
2023-01-05T08:17:16.473Z,92.9
2023-01-05T08:23:06.029Z,91.7
2023-01-05T08:29:10.821Z,91.3
2023-01-05T08:35:02.817Z,91.2
2023-01-05T08:40:56.879Z,90.4
2023-01-05T08:46:48.533Z,90.1
2023-01-05T08:52:41.141Z,89.6
2023-01-05T08:58:33.620Z,89
2023-01-05T09:04:29.930Z,89.2
2023-01-05T09:10:23.155Z,89.3
2023-01-05T09:16:14.847Z,88.4
2023-01-05T09:23:00.731Z,88.6
2023-01-05T09:28:52.232Z,88.6
2023-01-05T09:34:46.697Z,88.6
2023-01-05T09:40:38.233Z,89
2023-01-05T09:46:34.814Z,89
2023-01-05T09:52:40.052Z,89.3
2023-01-05T09:58:37.951Z,88.8
2023-01-05T10:04:46.292Z,88.7
2023-01-05T10:10:47.588Z,88.5
2023-01-05T10:16:42.256Z,87.9
2023-01-05T10:23:24.491Z,87.4
2023-01-05T10:29:15.179Z,87
2023-01-05T10:35:34.137Z,86.8
2023-01-05T10:42:01.032Z,85.3
2023-01-05T10:47:54.930Z,85.7
2023-01-05T10:53:48.232Z,84.8
2023-01-05T10:59:40.766Z,83.9
2023-01-05T11:05:50.595Z,84.4
2023-01-05T11:12:09.359Z,83.7
2023-01-05T11:24:49.651Z,82.1
2023-01-05T11:30:41.481Z,81.3
2023-01-05T11:36:33.220Z,81.2
2023-01-05T11:42:27.982Z,80
2023-01-05T11:48:18.293Z,79.7
2023-01-05T11:54:10.649Z,78.7
2023-01-05T12:00:36.950Z,79.9
2023-01-05T12:07:00.918Z,79
2023-01-05T12:13:05.042Z,78.6
2023-01-05T12:25:59.367Z,75.8
2023-01-05T12:39:44.519Z,76.2
2023-01-05T12:45:38.988Z,76.5
2023-01-05T12:51:32.942Z,76.8
2023-01-05T12:57:33.376Z,77.4
2023-01-05T13:03:33.098Z,77.4
2023-01-05T13:09:23.558Z,77.4
2023-01-05T13:15:17.743Z,78
2023-01-05T13:21:16.145Z,77.7
2023-01-05T13:27:05.840Z,77.6
2023-01-05T13:32:57.753Z,78.4
2023-01-05T13:38:48.652Z,79.1
2023-01-05T13:44:40.237Z,79.3
2023-01-05T13:50:32.608Z,79.4
2023-01-05T13:56:41.651Z,79.5
2023-01-05T14:02:35.967Z,79.3
2023-01-05T14:08:30.495Z,79.9
2023-01-05T14:14:25.109Z,79.9
2023-01-05T14:20:18.311Z,79.7
2023-01-05T14:26:09.545Z,79.8
2023-01-05T14:32:02.682Z,80
2023-01-05T14:37:53.881Z,79.9
2023-01-05T14:43:46.057Z,79.6
2023-01-05T14:49:38.224Z,79.8
2023-01-05T14:55:41.594Z,79.7
2023-01-05T15:01:32.224Z,80.1
2023-01-05T15:07:21.850Z,80.1
2023-01-05T15:13:14.447Z,80.1
2023-01-05T15:19:05.697Z,80.4
2023-01-05T15:24:56.126Z,80.5
2023-01-05T15:30:47.258Z,80.8
2023-01-05T15:36:37.973Z,81.9
2023-01-05T15:42:29.160Z,81.8
2023-01-05T15:48:21.088Z,82.1
2023-01-05T15:54:14.630Z,84.5
2023-01-05T16:00:10.842Z,85.7
2023-01-05T16:06:01.515Z,86.4
2023-01-05T16:11:53.628Z,88.2
2023-01-05T16:17:46.559Z,90.5
2023-01-05T16:23:39.495Z,92.5
2023-01-05T16:29:30.701Z,95.4
2023-01-05T16:35:23.488Z,96.6
2023-01-05T16:41:15.393Z,100
2023-01-05T16:47:06.358Z,100
2023-01-05T16:52:59.659Z,100
2023-01-05T16:58:52.099Z,100
2023-01-05T17:04:44.382Z,100
2023-01-05T17:10:35.980Z,100
2023-01-05T17:16:27.977Z,100
2023-01-05T17:22:21.142Z,100
2023-01-05T17:34:03.148Z,100
2023-01-05T17:39:53.971Z,100
2023-01-05T17:45:47.243Z,100
2023-01-05T17:51:37.769Z,100
2023-01-05T17:57:28.116Z,100
2023-01-05T18:03:20.034Z,100
2023-01-05T18:09:09.732Z,100
2023-01-05T18:14:59.777Z,100
2023-01-05T18:20:52.139Z,100
2023-01-05T18:26:42.933Z,99.9
2023-01-05T18:32:40.346Z,98.3
2023-01-05T18:38:31.671Z,99
2023-01-05T18:44:21.721Z,99.6
2023-01-05T18:50:12.450Z,99.6
2023-01-05T18:56:05.374Z,99.8
2023-01-05T19:01:56.325Z,99.5
2023-01-05T19:07:46.662Z,100
2023-01-05T19:13:37.408Z,100
2023-01-05T19:19:31.193Z,100
2023-01-05T19:25:22.538Z,100
2023-01-05T19:31:13.184Z,100
2023-01-05T19:37:03.737Z,100
2023-01-05T19:42:53.669Z,100
2023-01-05T19:48:44.966Z,100
2023-01-05T19:54:35.950Z,100
2023-01-05T20:00:26.541Z,100
2023-01-05T20:06:17.812Z,100
2023-01-05T20:12:16.084Z,100
2023-01-05T20:18:06.512Z,100
2023-01-05T20:23:57.244Z,100
2023-01-05T20:29:49.848Z,100
2023-01-05T20:35:42.094Z,100
2023-01-05T20:41:32.519Z,100
2023-01-05T20:47:24.504Z,100
2023-01-05T20:53:29.844Z,100
2023-01-05T20:59:21.268Z,100
2023-01-05T21:05:12.987Z,100
2023-01-05T21:11:03.564Z,100
2023-01-05T21:16:54.720Z,100
2023-01-05T21:22:45.503Z,100
2023-01-05T21:28:36.268Z,100
2023-01-05T21:34:26.858Z,100
2023-01-05T21:40:18.437Z,100
2023-01-05T21:46:09.971Z,100
2023-01-05T21:52:00.207Z,100
2023-01-05T21:57:50.923Z,100
2023-01-05T22:03:41.145Z,100
2023-01-05T22:09:34.326Z,100
2023-01-05T22:15:25.294Z,100
2023-01-05T22:21:19.081Z,100
2023-01-05T22:27:10.877Z,100
2023-01-05T22:33:05.021Z,100
2023-01-05T22:39:00.468Z,100
2023-01-05T22:44:50.695Z,100
2023-01-05T22:50:43.785Z,100
2023-01-05T22:56:37.496Z,100
2023-01-05T23:02:27.941Z,100
2023-01-05T23:08:19.561Z,100
2023-01-05T23:14:10.904Z,100
2023-01-05T23:20:02.078Z,100
2023-01-05T23:25:55.665Z,100
2023-01-05T23:31:46.510Z,100
2023-01-05T23:37:37.189Z,100
2023-01-05T23:43:27.953Z,100
2023-01-05T23:49:19.882Z,100
2023-01-05T23:55:09.628Z,100
